Terminal Aerodrome Forecast
Issued by NWS Amarillo, TX

Home | Current Version | Previous Version | Text Only | Print | Product List | Glossary On
Versions: 1 2 3 4 5 6 7 8 9 10 11 12 13
000
FTUS44 KAMA 280520
TAFAMA
TAF
KAMA 280520Z 2806/0106 21015KT P6SM OVC250
     FM281400 23035G45KT 6SM BLDU OVC150
     FM010100 26025G35KT P6SM SCT300=

USA.gov is the U.S. government's official web portal to all federal, state and local government web resources and services.